HomeShort term forecast

Short term forecast

Graphical weather forecast for the next 48 hours for Montreal:

 

Very short term forecast
This weather forecast is automatically refreshed every 3 hours.

Hourly Experimental Forecast for the next 48 hours ®

Overall summary: Rain starting tonight.

 Date & Hour   Temp   Feel   Baro   Hum   Speed & Bearing   Precipitation   Visibility   Cloud cover   Conditions 
 28/05/2017 - 07:00  13.0°C  13.0°C  1012.7 hPa  87%  7.0 km/h   --  16.1km  31%  Partly Cloudy 
 28/05/2017 - 08:00  15.1°C  15.1°C  1013.0 hPa  82%  8.1 km/h   --  16.1km  42%  Partly Cloudy 
 28/05/2017 - 09:00  17.2°C  17.2°C  1012.9 hPa  77%  7.6 km/h   --  15.9km  49%  Partly Cloudy 
 28/05/2017 - 10:00  19.5°C  19.5°C  1012.6 hPa  72%  6.8 km/h   --  16.0km  54%  Partly Cloudy 
 28/05/2017 - 11:00  21.3°C  21.3°C  1012.2 hPa  66%  6.4 km/h   --  16.1km  54%  Partly Cloudy 
 28/05/2017 - 12:00  24.6°C  24.6°C  1011.9 hPa  61%  7.1 km/h   --  16.1km  54%  Partly Cloudy 
 28/05/2017 - 13:00  25.7°C  25.7°C  1011.6 hPa  57%  7.8 km/h   --  16.1km  47%  Partly Cloudy 
 28/05/2017 - 14:00  26.4°C  26.4°C  1011.3 hPa  54%  8.5 km/h   --  16.1km  40%  Partly Cloudy 
 28/05/2017 - 15:00  26.6°C  26.6°C  1011.1 hPa  52%  9.5 km/h   --  16.1km  38%  Partly Cloudy 
 28/05/2017 - 16:00  26.6°C  26.6°C  1010.8 hPa  50%  10.5 km/h   --  16.1km  36%  Partly Cloudy 
 28/05/2017 - 17:00  25.8°C  25.8°C  1010.6 hPa  51%  11.0 km/h   --  16.1km  35%  Partly Cloudy 
 28/05/2017 - 18:00  24.1°C  24.1°C  1010.6 hPa  55%  10.5 km/h   0.03 mm/h  16.1km  35%  Partly Cloudy 
 28/05/2017 - 19:00  22.2°C  22.2°C  1010.6 hPa  61%  9.2 km/h   0.05 mm/h  16.1km  35%  Partly Cloudy 
 28/05/2017 - 20:00  20.7°C  20.7°C  1010.6 hPa  67%  8.4 km/h   0.07 mm/h  16.1km  36%  Partly Cloudy 
 28/05/2017 - 21:00  19.7°C  19.7°C  1010.8 hPa  72%  8.7 km/h   0.08 mm/h  15.9km  37%  Partly Cloudy 
 28/05/2017 - 22:00  19.2°C  19.2°C  1011.0 hPa  76%  9.6 km/h   0.09 mm/h  15.6km  39%  Partly Cloudy 
 28/05/2017 - 23:00  18.9°C  18.9°C  1011.0 hPa  80%  10.3 km/h   0.10 mm/h  15.4km  43%  Partly Cloudy 
 29/05/2017 - 00:00  18.5°C  18.5°C  1011.0 hPa  84%  10.4 km/h   --  15.7km  49%  Partly Cloudy 
 29/05/2017 - 01:00  17.9°C  17.9°C  1010.8 hPa  89%  10.4 km/h   --  15.9km  60%  Mostly Cloudy 
 29/05/2017 - 02:00  17.3°C  17.3°C  1010.6 hPa  92%  10.6 km/h   0.09 mm/h  16.0km  67%  Mostly Cloudy 
 29/05/2017 - 03:00  16.6°C  16.6°C  1010.4 hPa  93%  11.1 km/h   1.24 mm/h  16.1km  70%  Light Rain 
 29/05/2017 - 04:00  15.8°C  15.8°C  1010.2 hPa  93%  12.1 km/h   2.75 mm/h  16.1km  71%  Rain 
 29/05/2017 - 05:00  15.4°C  15.4°C  1010.1 hPa  92%  13.3 km/h   3.48 mm/h  16.1km  76%  Rain 
 29/05/2017 - 06:00  15.4°C  15.4°C  1010.1 hPa  89%  15.5 km/h   2.69 mm/h  16.1km  83%  Rain 
 29/05/2017 - 07:00  15.5°C  15.5°C  1010.1 hPa  86%  18.3 km/h   1.15 mm/h  16.1km  91%  Light Rain 
 29/05/2017 - 08:00  15.6°C  15.6°C  1010.3 hPa  84%  20.4 km/h   0.13 mm/h  16.1km  98%  Drizzle 
 29/05/2017 - 09:00  15.4°C  15.4°C  1010.5 hPa  85%  20.8 km/h   0.36 mm/h  12.1km  100%  Light Rain 
 29/05/2017 - 10:00  15.3°C  15.3°C  1010.9 hPa  88%  20.7 km/h   1.18 mm/h  6.8km  100%  Light Rain 
 29/05/2017 - 11:00  15.1°C  15.1°C  1011.1 hPa  90%  21.3 km/h   1.91 mm/h  4.1km  100%  Rain 
 29/05/2017 - 12:00  14.5°C  14.5°C  1011.2 hPa  91%  23.7 km/h   2.43 mm/h  6.6km  100%  Rain 
 29/05/2017 - 13:00  13.8°C  13.8°C  1011.1 hPa  92%  26.3 km/h   2.87 mm/h  11.7km  100%  Rain 
 29/05/2017 - 14:00  13.5°C  13.5°C  1011.0 hPa  92%  27.7 km/h   2.95 mm/h  15.6km  100%  Rain 
 29/05/2017 - 15:00  14.3°C  14.3°C  1010.9 hPa  91%  27.1 km/h   2.40 mm/h  16.1km  100%  Rain 
 29/05/2017 - 16:00  15.2°C  15.2°C  1010.8 hPa  89%  25.2 km/h   1.48 mm/h  16.1km  100%  Rain 
 29/05/2017 - 17:00  15.9°C  15.9°C  1010.8 hPa  87%  23.1 km/h   0.76 mm/h  16.1km  98%  Light Rain 
 29/05/2017 - 18:00  16.0°C  16.0°C  1011.0 hPa  86%  21.5 km/h   0.53 mm/h  16.1km  88%  Light Rain 
 29/05/2017 - 19:00  15.9°C  15.9°C  1011.2 hPa  86%  19.9 km/h   0.52 mm/h  16.1km  76%  Light Rain 
 29/05/2017 - 20:00  15.6°C  15.6°C  1011.6 hPa  85%  18.5 km/h   0.52 mm/h  16.1km  64%  Light Rain 
 29/05/2017 - 21:00  15.1°C  15.1°C  1012.0 hPa  86%  18.2 km/h   0.45 mm/h  16.1km  52%  Light Rain 
 29/05/2017 - 22:00  14.3°C  14.3°C  1012.4 hPa  88%  18.5 km/h   0.37 mm/h  16.1km  41%  Light Rain 
 29/05/2017 - 23:00  13.6°C  13.6°C  1012.8 hPa  89%  18.6 km/h   0.31 mm/h  16.1km  31%  Light Rain 
 30/05/2017 - 00:00  12.8°C  12.8°C  1013.0 hPa  90%  17.5 km/h   0.25 mm/h  16.1km  26%  Light Rain 
 30/05/2017 - 01:00  11.9°C  11.9°C  1013.1 hPa  91%  16.0 km/h   0.20 mm/h  16.1km  22%  Drizzle 
 30/05/2017 - 02:00  11.6°C  11.6°C  1013.1 hPa  92%  14.7 km/h   0.18 mm/h  16.1km  22%  Drizzle 
 30/05/2017 - 03:00  11.6°C  11.6°C  1013.2 hPa  93%  13.9 km/h   0.21 mm/h  16.1km  26%  Drizzle 
 30/05/2017 - 04:00  11.5°C  11.5°C  1013.1 hPa  94%  13.2 km/h   0.26 mm/h  16.0km  32%  Light Rain 
 30/05/2017 - 05:00  11.7°C  11.7°C  1013.1 hPa  94%  13.1 km/h   0.31 mm/h  15.9km  37%  Light Rain 
 30/05/2017 - 06:00  12.5°C  12.5°C  1013.2 hPa  93%  13.5 km/h   0.34 mm/h  16.1km  40%  Light Rain 
Test
 

Past weather and reports

Past weatherFind in this section the past weather conditions, weather archive, graphics, reports and statistics.

Current conditions

Current weather condition for MontrealAll you need to know about the current weather conditions for Montreal. Weather data is updated every 10 minutes.

Weather forecast

Current Montreal weatherSince 2004, celinium.com website provides accurate weather forecast for Montreal's island.